Time;durP1;ratioP1;P1;durP2;ratioP2;P2;SDS_P1;SDS_P2;PMS_P1;PMS_P2;Temp;Humidity;BMP_temperature;BMP_pressure;BME280_temperature;BME280_humidity;BME280_pressure;Samples;Min_cycle;Max_cycle;Signal;HPM_P1;HPM_P2
2023/06/17 00:00:59;;;;;;;6.28;4.50;;;;;;;;;;4915991;28;20576;-83
2023/06/17 00:03:25;;;;;;;7.43;4.78;;;;;;;;;;4933785;28;20515;-83
2023/06/17 00:05:51;;;;;;;6.75;4.90;;;;;;;;;;4915264;28;20036;-83
2023/06/17 00:08:19;;;;;;;7.68;4.90;;;;;;;;;;4909734;29;21083;-84
2023/06/17 00:10:45;;;;;;;7.93;4.80;;;;;;;;;;4897400;28;20035;-83
2023/06/17 00:13:10;;;;;;;8.02;5.00;;;;;;;;;;4920914;29;20043;-83
2023/06/17 00:15:36;;;;;;;6.65;4.78;;;;;;;;;;4933815;28;20448;-82
2023/06/17 00:18:10;;;;;;;6.68;4.95;;;;;;;;;;4934327;28;20036;-83
2023/06/17 00:20:36;;;;;;;7.63;5.32;;;;;;;;;;4929410;28;20127;-84
2023/06/17 00:23:03;;;;;;;8.27;5.35;;;;;;;;;;4923556;28;20039;-82
2023/06/17 00:25:29;;;;;;;7.30;5.10;;;;;;;;;;4919077;28;20412;-84
2023/06/17 00:27:54;;;;;;;8.68;5.70;;;;;;;;;;4915036;28;20040;-83
2023/06/17 00:30:20;;;;;;;8.85;6.07;;;;;;;;;;4919956;28;20420;-83
2023/06/17 00:32:45;;;;;;;11.48;5.53;;;;;;;;;;4914575;28;20051;-82
2023/06/17 00:35:11;;;;;;;8.25;5.60;;;;;;;;;;4916726;28;20488;-83
2023/06/17 00:37:36;;;;;;;8.15;5.50;;;;;;;;;;4918931;28;20057;-83
2023/06/17 00:40:05;;;;;;;7.07;5.40;;;;;;;;;;4917873;28;20404;-83
2023/06/17 00:42:31;;;;;;;11.80;5.78;;;;;;;;;;4915198;28;20036;-82
2023/06/17 00:44:56;;;;;;;7.88;5.93;;;;;;;;;;4907213;28;20099;-81
2023/06/17 00:47:23;;;;;;;7.68;5.93;;;;;;;;;;4902614;28;20099;-82
2023/06/17 00:49:49;;;;;;;8.48;6.28;;;;;;;;;;4912680;28;20035;-82
2023/06/17 00:52:15;;;;;;;7.80;5.93;;;;;;;;;;4908471;28;20534;-83
2023/06/17 00:54:41;;;;;;;7.93;5.80;;;;;;;;;;4914476;29;20048;-82
2023/06/17 00:57:17;;;;;;;10.13;6.53;;;;;;;;;;4933240;28;20061;-82
2023/06/17 00:59:44;;;;;;;10.00;6.05;;;;;;;;;;4908204;29;20056;-83
2023/06/17 01:02:15;;;;;;;8.93;6.32;;;;;;;;;;4914127;29;20040;-82
2023/06/17 01:04:42;;;;;;;12.20;7.00;;;;;;;;;;4913720;29;20039;-82
2023/06/17 01:07:46;;;;;;;8.70;6.90;;;;;;;;;;4935573;28;20528;-82
2023/06/17 01:10:36;;;;;;;9.05;6.90;;;;;;;;;;4918133;29;20174;-83
2023/06/17 01:13:03;;;;;;;9.57;6.97;;;;;;;;;;4918326;29;20158;-83
2023/06/17 01:15:31;;;;;;;8.82;6.78;;;;;;;;;;4916000;28;20043;-83
2023/06/17 01:17:57;;;;;;;10.65;6.55;;;;;;;;;;4917583;28;20559;-82
2023/06/17 01:20:23;;;;;;;11.85;6.45;;;;;;;;;;4914529;28;20074;-83
2023/06/17 01:22:54;;;;;;;10.10;6.88;;;;;;;;;;4918215;28;20063;-82
2023/06/17 01:25:29;;;;;;;9.60;7.53;;;;;;;;;;4915655;28;20035;-82
2023/06/17 01:27:59;;;;;;;10.23;7.00;;;;;;;;;;4917369;28;20094;-83
2023/06/17 01:30:31;;;;;;;8.75;7.10;;;;;;;;;;4917440;28;20055;-82
2023/06/17 01:33:00;;;;;;;10.20;6.72;;;;;;;;;;4921634;28;20043;-82
2023/06/17 01:35:32;;;;;;;8.95;6.38;;;;;;;;;;4930699;28;20118;-82
2023/06/17 01:38:03;;;;;;;10.60;6.97;;;;;;;;;;4915440;28;20039;-82
2023/06/17 01:40:30;;;;;;;8.60;6.25;;;;;;;;;;4916991;28;20032;-82
2023/06/17 01:42:58;;;;;;;9.40;6.88;;;;;;;;;;4932297;28;20043;-82
2023/06/17 01:45:26;;;;;;;10.45;7.30;;;;;;;;;;4913344;28;20035;-83
2023/06/17 01:47:52;;;;;;;10.10;7.13;;;;;;;;;;4914871;28;20039;-82
2023/06/17 01:50:26;;;;;;;9.27;6.55;;;;;;;;;;4929091;28;20040;-82
2023/06/17 01:52:52;;;;;;;9.77;6.63;;;;;;;;;;4928064;28;20404;-82
2023/06/17 01:55:21;;;;;;;8.65;6.57;;;;;;;;;;4913959;28;20035;-84
2023/06/17 01:57:46;;;;;;;9.27;6.88;;;;;;;;;;4915164;28;20063;-82
2023/06/17 02:00:13;;;;;;;8.95;6.78;;;;;;;;;;4933294;28;20535;-83
2023/06/17 02:02:38;;;;;;;11.13;6.97;;;;;;;;;;4916891;29;20450;-82
2023/06/17 02:05:04;;;;;;;10.48;6.93;;;;;;;;;;4922002;28;20046;-83
2023/06/17 02:07:30;;;;;;;10.88;7.45;;;;;;;;;;4932745;28;20035;-82
2023/06/17 02:09:56;;;;;;;9.40;7.25;;;;;;;;;;4913167;28;20362;-83
2023/06/17 02:12:21;;;;;;;9.35;7.20;;;;;;;;;;4917060;28;20039;-82
2023/06/17 02:14:47;;;;;;;9.55;7.47;;;;;;;;;;4917318;28;20038;-82
2023/06/17 02:17:14;;;;;;;9.30;6.97;;;;;;;;;;4915938;29;20032;-82
2023/06/17 02:19:39;;;;;;;10.27;7.03;;;;;;;;;;4932860;28;20039;-83
2023/06/17 02:22:08;;;;;;;11.18;7.88;;;;;;;;;;4912289;28;20091;-82
2023/06/17 02:24:33;;;;;;;9.35;7.30;;;;;;;;;;4930345;28;20043;-83
2023/06/17 02:26:59;;;;;;;9.30;7.20;;;;;;;;;;4917846;28;20576;-82
2023/06/17 02:29:25;;;;;;;10.32;7.45;;;;;;;;;;4912736;28;20482;-82
2023/06/17 02:31:51;;;;;;;9.27;6.72;;;;;;;;;;4902185;29;20042;-83
2023/06/17 02:34:17;;;;;;;10.90;7.72;;;;;;;;;;4905107;29;20492;-82
2023/06/17 02:36:43;;;;;;;10.65;7.50;;;;;;;;;;4920238;28;20036;-82
2023/06/17 02:39:08;;;;;;;10.65;7.88;;;;;;;;;;4918230;28;20175;-82
2023/06/17 02:41:33;;;;;;;10.88;7.63;;;;;;;;;;4926057;28;20384;-82
2023/06/17 02:43:59;;;;;;;10.02;7.43;;;;;;;;;;4911790;28;20050;-83
2023/06/17 02:46:25;;;;;;;11.68;7.45;;;;;;;;;;4918711;28;20629;-82
2023/06/17 02:48:50;;;;;;;11.02;7.63;;;;;;;;;;4916520;28;20042;-83
2023/06/17 02:51:16;;;;;;;10.45;7.72;;;;;;;;;;4918469;28;20583;-83
2023/06/17 02:53:41;;;;;;;10.20;7.50;;;;;;;;;;4925296;29;20046;-82
2023/06/17 02:56:07;;;;;;;8.45;7.25;;;;;;;;;;4918733;28;20047;-83
2023/06/17 02:58:32;;;;;;;11.50;7.82;;;;;;;;;;4915363;28;20035;-82
2023/06/17 03:00:58;;;;;;;9.57;6.75;;;;;;;;;;4918408;28;20036;-83
2023/06/17 03:03:33;;;;;;;10.63;7.57;;;;;;;;;;4910442;28;20464;-83
2023/06/17 03:06:05;;;;;;;10.27;6.88;;;;;;;;;;4910722;28;20470;-82
2023/06/17 03:08:32;;;;;;;10.18;7.35;;;;;;;;;;4932262;28;20072;-82
2023/06/17 03:10:58;;;;;;;9.43;7.28;;;;;;;;;;4898116;28;20067;-82
2023/06/17 03:13:23;;;;;;;8.63;6.72;;;;;;;;;;4925564;28;20070;-82
2023/06/17 03:15:50;;;;;;;10.70;7.30;;;;;;;;;;4912664;28;20042;-82
2023/06/17 03:18:16;;;;;;;10.00;7.37;;;;;;;;;;4920465;28;20456;-82
2023/06/17 03:20:42;;;;;;;9.98;7.22;;;;;;;;;;4917692;29;20150;-81
2023/06/17 03:23:08;;;;;;;10.20;7.03;;;;;;;;;;4921862;28;20450;-82
2023/06/17 03:25:34;;;;;;;9.52;7.15;;;;;;;;;;4918540;28;20039;-82
2023/06/17 03:28:02;;;;;;;9.93;7.65;;;;;;;;;;4931880;28;20028;-82
2023/06/17 03:30:29;;;;;;;9.98;7.70;;;;;;;;;;4917038;28;20542;-82
2023/06/17 03:32:57;;;;;;;9.63;7.25;;;;;;;;;;4917629;28;20039;-83
2023/06/17 03:35:25;;;;;;;10.45;7.28;;;;;;;;;;4933093;28;20044;-82
2023/06/17 03:37:51;;;;;;;9.75;7.53;;;;;;;;;;4920066;28;20043;-83
2023/06/17 03:40:16;;;;;;;9.85;7.47;;;;;;;;;;4917709;28;20062;-83
2023/06/17 03:42:42;;;;;;;9.95;7.55;;;;;;;;;;4918652;29;20139;-82
2023/06/17 03:45:08;;;;;;;11.07;8.20;;;;;;;;;;4933883;28;20506;-82
2023/06/17 03:47:33;;;;;;;9.48;7.57;;;;;;;;;;4934339;28;20031;-82
2023/06/17 03:49:59;;;;;;;9.65;7.15;;;;;;;;;;4909911;28;20066;-82
2023/06/17 03:52:25;;;;;;;9.85;7.25;;;;;;;;;;4919343;28;20412;-83
2023/06/17 03:54:50;;;;;;;13.00;7.90;;;;;;;;;;4920361;28;20373;-82
2023/06/17 03:57:15;;;;;;;12.30;8.65;;;;;;;;;;4933201;28;20039;-82
2023/06/17 03:59:43;;;;;;;10.23;8.02;;;;;;;;;;4920389;29;20397;-83
2023/06/17 04:02:09;;;;;;;11.32;8.05;;;;;;;;;;4910827;29;20394;-82
2023/06/17 04:04:35;;;;;;;11.15;7.40;;;;;;;;;;4906840;28;20031;-82
2023/06/17 04:07:01;;;;;;;10.98;8.18;;;;;;;;;;4917821;28;20455;-82
2023/06/17 04:09:26;;;;;;;9.50;7.40;;;;;;;;;;4924352;28;20126;-83
2023/06/17 04:11:51;;;;;;;11.18;8.27;;;;;;;;;;4917713;28;20028;-82
2023/06/17 04:14:22;;;;;;;12.68;8.65;;;;;;;;;;4907745;28;20466;-83
2023/06/17 04:16:49;;;;;;;10.82;8.32;;;;;;;;;;4923051;28;20035;-82
2023/06/17 04:19:17;;;;;;;10.63;8.18;;;;;;;;;;4917370;29;20463;-82
2023/06/17 04:21:43;;;;;;;11.70;8.05;;;;;;;;;;4934847;28;20559;-82
2023/06/17 04:24:09;;;;;;;12.18;9.00;;;;;;;;;;4920072;28;20036;-82
2023/06/17 04:26:35;;;;;;;10.63;8.45;;;;;;;;;;4920457;28;20043;-81
2023/06/17 04:29:00;;;;;;;11.73;8.27;;;;;;;;;;4917024;28;20031;-82
2023/06/17 04:31:27;;;;;;;10.70;8.40;;;;;;;;;;4915351;28;20031;-83
2023/06/17 04:33:53;;;;;;;11.07;8.50;;;;;;;;;;4894796;29;20047;-82
2023/06/17 04:36:19;;;;;;;12.07;8.35;;;;;;;;;;4915475;28;20036;-82
2023/06/17 04:38:47;;;;;;;11.13;8.93;;;;;;;;;;4916476;29;20032;-82
2023/06/17 04:41:13;;;;;;;11.68;9.00;;;;;;;;;;4916182;29;20043;-81
2023/06/17 04:43:38;;;;;;;11.68;8.57;;;;;;;;;;4928263;28;20043;-83
2023/06/17 04:46:04;;;;;;;11.45;8.23;;;;;;;;;;4914602;28;20039;-81
2023/06/17 04:48:50;;;;;;;13.23;10.07;;;;;;;;;;4932633;28;20126;-81
2023/06/17 04:51:17;;;;;;;13.85;9.07;;;;;;;;;;4870788;29;20129;-82
2023/06/17 04:53:51;;;;;;;12.02;8.80;;;;;;;;;;4855680;29;20072;-82
2023/06/17 04:56:19;;;;;;;12.98;9.13;;;;;;;;;;4826824;29;20041;-82
2023/06/17 04:58:45;;;;;;;14.18;9.45;;;;;;;;;;4849444;29;20033;-81
2023/06/17 05:01:12;;;;;;;13.13;9.27;;;;;;;;;;4804126;29;20044;-82
2023/06/17 05:03:37;;;;;;;14.20;10.23;;;;;;;;;;4846308;29;20037;-82
2023/06/17 05:06:02;;;;;;;14.10;10.15;;;;;;;;;;4837947;29;20068;-85
2023/06/17 05:08:28;;;;;;;13.25;9.82;;;;;;;;;;4829634;29;20061;-85
2023/06/17 05:10:53;;;;;;;12.35;9.63;;;;;;;;;;4855025;29;20509;-85
2023/06/17 05:13:19;;;;;;;14.45;9.50;;;;;;;;;;4855456;29;20069;-86
2023/06/17 05:15:44;;;;;;;12.32;9.23;;;;;;;;;;4832972;29;20037;-85
2023/06/17 05:18:10;;;;;;;13.38;10.20;;;;;;;;;;4830590;29;20053;-84
2023/06/17 05:20:35;;;;;;;15.13;10.80;;;;;;;;;;4855120;29;20091;-85
2023/06/17 05:23:00;;;;;;;14.60;10.18;;;;;;;;;;4854152;29;20120;-85
2023/06/17 05:25:26;;;;;;;13.63;9.90;;;;;;;;;;4836619;29;20132;-85
2023/06/17 05:27:51;;;;;;;12.82;10.48;;;;;;;;;;4857024;28;20043;-85
2023/06/17 05:30:17;;;;;;;18.38;12.48;;;;;;;;;;4933977;28;20038;-85
2023/06/17 05:32:42;;;;;;;15.55;11.63;;;;;;;;;;4900406;28;20575;-86
2023/06/17 05:35:08;;;;;;;16.02;12.07;;;;;;;;;;4920121;28;20043;-85
2023/06/17 05:37:33;;;;;;;17.80;12.80;;;;;;;;;;4915138;28;20047;-85
2023/06/17 05:39:58;;;;;;;17.70;13.60;;;;;;;;;;4920673;28;20038;-85
2023/06/17 05:42:24;;;;;;;18.10;13.25;;;;;;;;;;4918809;28;20043;-85
2023/06/17 05:44:49;;;;;;;19.58;13.20;;;;;;;;;;4908394;29;20439;-86
2023/06/17 05:47:15;;;;;;;20.80;15.13;;;;;;;;;;4918262;29;20046;-86
2023/06/17 05:49:40;;;;;;;20.63;15.25;;;;;;;;;;4918755;29;20373;-86
2023/06/17 05:52:06;;;;;;;22.25;15.27;;;;;;;;;;4915319;28;20035;-86
2023/06/17 05:54:31;;;;;;;20.08;15.63;;;;;;;;;;4917756;28;20060;-85
2023/06/17 05:56:57;;;;;;;21.52;15.20;;;;;;;;;;4908364;28;20064;-85
2023/06/17 05:59:23;;;;;;;20.38;15.07;;;;;;;;;;4918912;28;20491;-86
2023/06/17 06:01:58;;;;;;;20.48;14.77;;;;;;;;;;4912431;28;20468;-85
2023/06/17 06:04:23;;;;;;;19.17;14.10;;;;;;;;;;4892615;28;20032;-86
2023/06/17 06:06:49;;;;;;;20.17;14.90;;;;;;;;;;4926855;28;20086;-85
2023/06/17 06:09:14;;;;;;;21.60;15.38;;;;;;;;;;4917300;29;20118;-86
2023/06/17 06:11:40;;;;;;;18.98;15.00;;;;;;;;;;4925276;28;20047;-86
2023/06/17 06:14:06;;;;;;;19.98;14.93;;;;;;;;;;4934911;28;20047;-86
2023/06/17 06:16:31;;;;;;;20.25;14.45;;;;;;;;;;4918697;28;20058;-86
2023/06/17 06:18:57;;;;;;;19.73;15.32;;;;;;;;;;4928758;28;20035;-86
2023/06/17 06:21:22;;;;;;;19.33;14.75;;;;;;;;;;4920093;28;20051;-85
2023/06/17 06:23:49;;;;;;;21.83;15.50;;;;;;;;;;4921886;28;20046;-85
2023/06/17 06:26:14;;;;;;;18.35;13.73;;;;;;;;;;4906857;29;20036;-85
2023/06/17 06:28:42;;;;;;;17.33;13.60;;;;;;;;;;4912671;28;20043;-85
2023/06/17 06:31:11;;;;;;;16.63;14.15;;;;;;;;;;4889894;28;20476;-86
2023/06/17 06:33:37;;;;;;;19.48;14.02;;;;;;;;;;4905744;28;20039;-85
2023/06/17 06:36:03;;;;;;;18.85;13.20;;;;;;;;;;4913095;28;20534;-86
2023/06/17 06:38:28;;;;;;;15.10;12.45;;;;;;;;;;4935159;28;20035;-86
2023/06/17 06:40:54;;;;;;;15.43;12.00;;;;;;;;;;4926659;28;20114;-85
2023/06/17 06:43:20;;;;;;;14.85;11.70;;;;;;;;;;4924938;28;20483;-85
2023/06/17 06:45:45;;;;;;;16.05;11.90;;;;;;;;;;4924211;29;20032;-86
2023/06/17 06:48:12;;;;;;;13.27;11.52;;;;;;;;;;4910432;29;20044;-85
2023/06/17 06:50:38;;;;;;;17.20;11.88;;;;;;;;;;4899439;28;20047;-85
2023/06/17 06:53:03;;;;;;;18.23;12.10;;;;;;;;;;4904982;28;20428;-85
2023/06/17 06:55:34;;;;;;;14.45;11.73;;;;;;;;;;4919973;28;20046;-86
2023/06/17 06:58:00;;;;;;;17.83;12.55;;;;;;;;;;4919305;28;20384;-83
2023/06/17 07:00:58;;;;;;;15.20;12.18;;;;;;;;;;4899809;28;20046;-84
2023/06/17 07:03:23;;;;;;;14.85;12.10;;;;;;;;;;4874656;29;20185;-85
2023/06/17 07:05:49;;;;;;;16.02;11.85;;;;;;;;;;4848226;29;20179;-84
2023/06/17 07:08:14;;;;;;;15.32;12.68;;;;;;;;;;4850091;29;20048;-82
2023/06/17 07:11:00;;;;;;;15.25;11.90;;;;;;;;;;4866090;29;20041;-84
2023/06/17 07:13:26;;;;;;;15.95;12.35;;;;;;;;;;4816081;29;20474;-84
2023/06/17 07:15:52;;;;;;;13.88;11.88;;;;;;;;;;4785857;29;20046;-84
2023/06/17 07:18:17;;;;;;;17.58;12.98;;;;;;;;;;4796961;29;20384;-85
2023/06/17 07:20:43;;;;;;;16.02;12.70;;;;;;;;;;4779926;29;20105;-85
2023/06/17 07:23:08;;;;;;;15.32;12.20;;;;;;;;;;4789383;29;20043;-86
2023/06/17 07:25:36;;;;;;;15.63;11.98;;;;;;;;;;4800632;29;21718;-86
2023/06/17 07:28:03;;;;;;;15.25;11.77;;;;;;;;;;4817574;29;20051;-87
2023/06/17 07:30:34;;;;;;;15.23;12.30;;;;;;;;;;4801109;29;20110;-87
2023/06/17 07:32:59;;;;;;;15.68;11.60;;;;;;;;;;4816390;29;20050;-86
2023/06/17 07:35:25;;;;;;;12.73;10.93;;;;;;;;;;4802437;29;20090;-87
2023/06/17 07:37:51;;;;;;;13.63;11.32;;;;;;;;;;4787015;29;20042;-85
2023/06/17 07:40:20;;;;;;;14.35;10.95;;;;;;;;;;4839845;29;20518;-85
2023/06/17 07:42:46;;;;;;;14.80;10.60;;;;;;;;;;4816893;29;20094;-86
2023/06/17 07:45:11;;;;;;;12.80;10.57;;;;;;;;;;4840801;29;20808;-87
2023/06/17 07:47:37;;;;;;;11.60;10.13;;;;;;;;;;4823103;29;20046;-88
2023/06/17 07:50:04;;;;;;;12.65;9.88;;;;;;;;;;4859143;28;20109;-87
2023/06/17 07:52:33;;;;;;;13.52;9.98;;;;;;;;;;4929900;28;20040;-87
2023/06/17 07:54:59;;;;;;;12.32;10.15;;;;;;;;;;4911200;28;20085;-87
2023/06/17 07:57:25;;;;;;;11.63;9.73;;;;;;;;;;4915318;28;20039;-85
2023/06/17 07:59:51;;;;;;;13.93;11.07;;;;;;;;;;4897556;28;20804;-80
2023/06/17 08:02:22;;;;;;;11.85;10.18;;;;;;;;;;4929886;28;20039;-79
2023/06/17 08:04:48;;;;;;;10.65;8.75;;;;;;;;;;4919213;28;20038;-79
2023/06/17 08:07:20;;;;;;;11.52;9.30;;;;;;;;;;4916360;29;20110;-85
2023/06/17 08:09:45;;;;;;;12.70;10.00;;;;;;;;;;4909245;29;20443;-85
2023/06/17 08:12:18;;;;;;;13.10;10.07;;;;;;;;;;4906687;29;20119;-83
2023/06/17 08:14:43;;;;;;;11.98;9.90;;;;;;;;;;4917801;28;20130;-83
2023/06/17 08:17:09;;;;;;;12.73;10.13;;;;;;;;;;4931727;28;20039;-85
2023/06/17 08:19:35;;;;;;;12.68;9.60;;;;;;;;;;4898711;28;20035;-85
2023/06/17 08:22:00;;;;;;;12.77;9.10;;;;;;;;;;4914101;28;20036;-84
2023/06/17 08:24:26;;;;;;;11.18;8.80;;;;;;;;;;4913670;28;20119;-84
2023/06/17 08:26:53;;;;;;;10.90;9.20;;;;;;;;;;4910224;28;20508;-84
2023/06/17 08:29:19;;;;;;;10.27;8.45;;;;;;;;;;4902409;28;20047;-85
2023/06/17 08:31:49;;;;;;;10.00;8.63;;;;;;;;;;4930346;28;20047;-85
2023/06/17 08:34:15;;;;;;;10.90;7.85;;;;;;;;;;4932664;28;20407;-85
2023/06/17 08:36:46;;;;;;;9.15;7.25;;;;;;;;;;4933539;28;20046;-85
2023/06/17 08:39:12;;;;;;;11.70;8.40;;;;;;;;;;4912114;28;20034;-83
2023/06/17 08:41:40;;;;;;;9.80;8.25;;;;;;;;;;4924484;28;20038;-83
2023/06/17 08:44:07;;;;;;;11.63;8.82;;;;;;;;;;4911081;28;20550;-83
2023/06/17 08:46:33;;;;;;;9.55;7.70;;;;;;;;;;4929718;28;20039;-82
2023/06/17 08:48:59;;;;;;;11.15;7.70;;;;;;;;;;4932242;28;20086;-83
2023/06/17 08:51:25;;;;;;;8.52;7.45;;;;;;;;;;4928357;28;20035;-83
2023/06/17 08:53:53;;;;;;;8.48;7.05;;;;;;;;;;4911339;28;20819;-80
2023/06/17 08:56:19;;;;;;;8.88;7.72;;;;;;;;;;4903979;28;20439;-79
2023/06/17 08:58:45;;;;;;;12.43;8.60;;;;;;;;;;4917682;29;20044;-79
2023/06/17 09:01:11;;;;;;;11.48;8.40;;;;;;;;;;4930178;28;20888;-79
2023/06/17 09:03:39;;;;;;;8.65;6.88;;;;;;;;;;4917690;28;20150;-78
2023/06/17 09:06:25;;;;;;;9.60;7.68;;;;;;;;;;4930178;28;20051;-78
2023/06/17 09:08:51;;;;;;;9.93;8.50;;;;;;;;;;4930394;28;20123;-79
2023/06/17 09:11:20;;;;;;;11.30;8.70;;;;;;;;;;4890926;28;20442;-79
2023/06/17 09:13:50;;;;;;;10.70;8.75;;;;;;;;;;4910049;29;20047;-79
2023/06/17 09:16:17;;;;;;;9.63;8.00;;;;;;;;;;4912091;29;20042;-79
2023/06/17 09:18:43;;;;;;;;;;;;;;;;;;4898118;29;20487;-79
2023/06/17 09:21:08;;;;;;;11.20;8.38;;;;;;;;;;4922920;28;19926;-78
2023/06/17 09:23:33;;;;;;;11.27;9.50;;;;;;;;;;4913972;28;20751;-79
2023/06/17 09:26:03;;;;;;;12.52;9.23;;;;;;;;;;4930201;28;20055;-78
2023/06/17 09:28:30;;;;;;;11.18;9.35;;;;;;;;;;4908361;28;20036;-79
2023/06/17 09:30:57;;;;;;;10.63;8.68;;;;;;;;;;4906551;28;20102;-79
2023/06/17 09:33:26;;;;;;;10.68;8.45;;;;;;;;;;4931843;28;20487;-79
2023/06/17 09:36:18;;;;;;;11.50;8.35;;;;;;;;;;4921735;28;20032;-78
2023/06/17 09:38:45;;;;;;;10.32;7.90;;;;;;;;;;4910998;29;20098;-78
2023/06/17 09:41:14;;;;;;;9.77;8.10;;;;;;;;;;4910316;28;20040;-78
2023/06/17 09:43:41;;;;;;;8.85;7.25;;;;;;;;;;4901504;29;20123;-78
2023/06/17 09:46:07;;;;;;;10.77;7.45;;;;;;;;;;4864936;29;20480;-79
2023/06/17 09:48:37;;;;;;;10.30;7.97;;;;;;;;;;4907274;29;20040;-83
2023/06/17 09:51:05;;;;;;;9.98;7.57;;;;;;;;;;4914844;29;20040;-79
2023/06/17 09:53:30;;;;;;;8.60;7.15;;;;;;;;;;4923339;28;20051;-85
2023/06/17 09:55:57;;;;;;;9.32;7.32;;;;;;;;;;4920039;28;20047;-85
2023/06/17 09:58:30;;;;;;;9.88;7.53;;;;;;;;;;4920976;28;20044;-85
2023/06/17 10:01:00;;;;;;;9.57;7.05;;;;;;;;;;4915364;28;20122;-85
2023/06/17 10:03:26;;;;;;;9.48;7.03;;;;;;;;;;4937215;28;20038;-88
2023/06/17 10:05:59;;;;;;;9.23;7.40;;;;;;;;;;4934109;28;20034;-87
2023/06/17 10:08:25;;;;;;;11.75;7.93;;;;;;;;;;4938753;28;20038;-87
2023/06/17 10:10:51;;;;;;;8.80;7.30;;;;;;;;;;4918035;28;20043;-86
2023/06/17 10:13:20;;;;;;;10.50;8.13;;;;;;;;;;4922749;28;20039;-86
2023/06/17 10:15:46;;;;;;;10.40;8.48;;;;;;;;;;4921785;28;20110;-86
2023/06/17 10:18:13;;;;;;;9.55;8.38;;;;;;;;;;4918571;29;20038;-87
2023/06/17 10:20:39;;;;;;;10.82;9.00;;;;;;;;;;4894363;28;20036;-87
2023/06/17 10:23:04;;;;;;;10.68;9.15;;;;;;;;;;4916025;28;20042;-85
2023/06/17 10:25:36;;;;;;;10.50;8.07;;;;;;;;;;4916230;28;20114;-84
2023/06/17 10:28:03;;;;;;;11.20;7.85;;;;;;;;;;4909302;28;20480;-85
2023/06/17 10:30:35;;;;;;;11.65;9.00;;;;;;;;;;4908613;28;20492;-86
2023/06/17 10:33:02;;;;;;;11.52;9.23;;;;;;;;;;4906958;28;20170;-85
2023/06/17 10:35:40;;;;;;;11.93;9.30;;;;;;;;;;4932346;28;20570;-85
2023/06/17 10:38:07;;;;;;;14.75;10.63;;;;;;;;;;4920346;28;20071;-86
2023/06/17 10:40:36;;;;;;;13.80;10.32;;;;;;;;;;4917860;28;20491;-86
2023/06/17 10:43:01;;;;;;;13.60;10.48;;;;;;;;;;4921105;28;20047;-86
2023/06/17 10:45:31;;;;;;;13.40;10.77;;;;;;;;;;4947877;28;20933;-85
2023/06/17 10:48:24;;;;;;;14.75;11.43;;;;;;;;;;4919444;28;20050;-82
2023/06/17 10:50:55;;;;;;;14.18;10.57;;;;;;;;;;4935482;28;20388;-84
2023/06/17 10:53:28;;;;;;;13.43;10.73;;;;;;;;;;4906577;29;20032;-85
2023/06/17 10:55:56;;;;;;;12.82;10.70;;;;;;;;;;4924693;28;20570;-85
2023/06/17 10:58:23;;;;;;;12.27;10.23;;;;;;;;;;4900661;28;20040;-87
2023/06/17 11:01:09;;;;;;;14.45;10.90;;;;;;;;;;4920838;28;20062;-85
2023/06/17 11:03:35;;;;;;;13.73;10.50;;;;;;;;;;4910232;29;20415;-89
2023/06/17 11:06:10;;;;;;;11.48;9.93;;;;;;;;;;4912397;28;20111;-90
2023/06/17 11:08:36;;;;;;;11.13;9.20;;;;;;;;;;4918555;29;20039;-91
2023/06/17 11:11:15;;;;;;;11.33;8.53;;;;;;;;;;4920824;28;20558;-85
2023/06/17 11:13:42;;;;;;;9.85;8.20;;;;;;;;;;4921364;29;20563;-85
2023/06/17 11:16:08;;;;;;;8.55;6.90;;;;;;;;;;4934451;28;20491;-86
2023/06/17 11:18:36;;;;;;;9.02;7.07;;;;;;;;;;4898650;28;20515;-85
2023/06/17 11:21:03;;;;;;;7.60;6.40;;;;;;;;;;4920831;28;20531;-85
2023/06/17 11:23:37;;;;;;;7.15;5.70;;;;;;;;;;4911648;28;20502;-91
2023/06/17 11:26:04;;;;;;;7.47;5.32;;;;;;;;;;4923767;28;20086;-81
2023/06/17 11:28:31;;;;;;;6.95;5.20;;;;;;;;;;4917479;28;20032;-87
2023/06/17 11:31:07;;;;;;;6.07;4.80;;;;;;;;;;4907729;29;20046;-88
2023/06/17 11:33:33;;;;;;;6.07;4.68;;;;;;;;;;4908818;28;20528;-87
2023/06/17 11:36:02;;;;;;;5.65;4.88;;;;;;;;;;4908388;28;20042;-86
2023/06/17 11:38:34;;;;;;;7.03;5.70;;;;;;;;;;4889239;28;20042;-88
2023/06/17 11:41:06;;;;;;;6.53;5.60;;;;;;;;;;4899912;28;20845;-89
2023/06/17 11:43:32;;;;;;;6.78;5.43;;;;;;;;;;4919490;29;20035;-85
2023/06/17 11:45:58;;;;;;;9.02;5.40;;;;;;;;;;4916750;28;20432;-87
2023/06/17 11:48:28;;;;;;;9.98;5.80;;;;;;;;;;4920923;28;20035;-85
2023/06/17 11:51:33;;;;;;;8.60;6.22;;;;;;;;;;4922298;28;20134;-86
2023/06/17 11:54:03;;;;;;;7.55;5.68;;;;;;;;;;4901676;28;20035;-88
2023/06/17 11:57:10;;;;;;;6.25;5.25;;;;;;;;;;4892861;28;20102;-85
2023/06/17 11:59:38;;;;;;;6.93;5.15;;;;;;;;;;4908751;28;20035;-86
2023/06/17 12:02:04;;;;;;;7.18;5.13;;;;;;;;;;4882449;28;20536;-87
2023/06/17 12:04:30;;;;;;;7.50;4.97;;;;;;;;;;4910545;29;20042;-87
2023/06/17 12:06:56;;;;;;;6.72;4.45;;;;;;;;;;4891356;28;20504;-84
2023/06/17 12:09:21;;;;;;;7.00;4.55;;;;;;;;;;4908687;28;20121;-86
2023/06/17 12:11:47;;;;;;;5.95;4.35;;;;;;;;;;4920825;28;20476;-86
2023/06/17 12:14:24;;;;;;;6.90;4.57;;;;;;;;;;4911504;28;20130;-86
2023/06/17 12:16:51;;;;;;;6.18;4.47;;;;;;;;;;4920613;28;20499;-82
2023/06/17 12:19:22;;;;;;;7.60;4.60;;;;;;;;;;4932294;28;20043;-81
2023/06/17 12:21:47;;;;;;;6.75;4.28;;;;;;;;;;4929025;28;20031;-82
2023/06/17 12:24:17;;;;;;;5.90;4.32;;;;;;;;;;4921765;29;20735;-82
2023/06/17 12:26:46;;;;;;;8.63;4.38;;;;;;;;;;4910043;29;20830;-82
2023/06/17 12:29:13;;;;;;;5.93;4.30;;;;;;;;;;4922794;29;20036;-82
2023/06/17 12:31:39;;;;;;;8.07;4.20;;;;;;;;;;4911535;29;20043;-83
2023/06/17 12:34:05;;;;;;;6.93;4.03;;;;;;;;;;4904763;28;20047;-83
2023/06/17 12:36:31;;;;;;;6.93;3.33;;;;;;;;;;4915038;28;20043;-84
2023/06/17 12:39:22;;;;;;;5.68;3.85;;;;;;;;;;4917229;28;20399;-83
2023/06/17 12:41:48;;;;;;;5.63;3.45;;;;;;;;;;4929249;28;20045;-84
2023/06/17 12:44:13;;;;;;;6.25;3.72;;;;;;;;;;4924459;28;20043;-87
2023/06/17 12:46:44;;;;;;;5.70;3.42;;;;;;;;;;4932599;28;20083;-88
2023/06/17 12:49:10;;;;;;;5.43;3.70;;;;;;;;;;4885180;29;20039;-88
2023/06/17 12:51:36;;;;;;;6.38;3.70;;;;;;;;;;4917091;28;20114;-87
2023/06/17 12:54:01;;;;;;;6.18;3.65;;;;;;;;;;4916250;28;20052;-85
2023/06/17 12:56:33;;;;;;;4.68;3.35;;;;;;;;;;4919004;28;20091;-87
2023/06/17 12:58:58;;;;;;;5.60;3.50;;;;;;;;;;4918919;28;20042;-84
2023/06/17 13:01:24;;;;;;;5.25;2.92;;;;;;;;;;4916740;28;20048;-87
2023/06/17 13:03:49;;;;;;;5.38;3.33;;;;;;;;;;4910287;28;20058;-85
2023/06/17 13:06:15;;;;;;;4.40;2.70;;;;;;;;;;4932105;28;20039;-87
2023/06/17 13:08:41;;;;;;;4.10;2.63;;;;;;;;;;4902816;28;20027;-86
2023/06/17 13:11:06;;;;;;;4.43;2.90;;;;;;;;;;4907632;28;20067;-87
2023/06/17 13:13:33;;;;;;;4.55;2.50;;;;;;;;;;4902121;28;20067;-87
2023/06/17 13:15:59;;;;;;;4.10;2.60;;;;;;;;;;4933331;28;20451;-86
2023/06/17 13:18:25;;;;;;;4.13;2.65;;;;;;;;;;4914245;28;20079;-86
2023/06/17 13:20:51;;;;;;;3.53;2.25;;;;;;;;;;4916462;28;20040;-87
2023/06/17 13:23:17;;;;;;;4.07;2.55;;;;;;;;;;4911815;28;20570;-86
2023/06/17 13:25:42;;;;;;;3.70;2.47;;;;;;;;;;4930735;28;20044;-87
2023/06/17 13:28:10;;;;;;;5.75;2.60;;;;;;;;;;4921171;28;20040;-87
2023/06/17 13:30:36;;;;;;;4.68;2.78;;;;;;;;;;4918091;28;20043;-86
2023/06/17 13:33:02;;;;;;;4.07;2.30;;;;;;;;;;4929931;28;20403;-87
2023/06/17 13:35:27;;;;;;;3.83;2.40;;;;;;;;;;4909872;28;20077;-87
2023/06/17 13:37:54;;;;;;;3.42;2.17;;;;;;;;;;4914894;28;20063;-87
2023/06/17 13:40:20;;;;;;;3.38;2.15;;;;;;;;;;4916809;28;20103;-84
2023/06/17 13:42:46;;;;;;;4.32;2.30;;;;;;;;;;4891557;29;20464;-85
2023/06/17 13:45:11;;;;;;;3.75;2.10;;;;;;;;;;4897393;28;20051;-85
2023/06/17 13:47:38;;;;;;;5.15;2.30;;;;;;;;;;4918163;28;20035;-85
2023/06/17 13:50:07;;;;;;;3.22;2.30;;;;;;;;;;4917806;28;20048;-85
2023/06/17 13:52:32;;;;;;;4.10;2.63;;;;;;;;;;4933253;28;20036;-84
2023/06/17 13:54:58;;;;;;;5.03;3.13;;;;;;;;;;4915835;28;20505;-85
2023/06/17 13:57:24;;;;;;;5.43;2.85;;;;;;;;;;4917626;28;20523;-84
2023/06/17 13:59:52;;;;;;;4.30;2.80;;;;;;;;;;4904269;28;20051;-84
2023/06/17 14:02:18;;;;;;;4.45;2.90;;;;;;;;;;4917477;28;20377;-84
2023/06/17 14:04:43;;;;;;;6.00;3.08;;;;;;;;;;4920466;29;20039;-83
2023/06/17 14:07:09;;;;;;;4.53;3.33;;;;;;;;;;4912162;28;20066;-83
2023/06/17 14:09:34;;;;;;;4.97;3.30;;;;;;;;;;4918540;29;20091;-83
2023/06/17 14:12:00;;;;;;;4.43;3.30;;;;;;;;;;4903918;28;20031;-83
2023/06/17 14:14:26;;;;;;;6.25;3.60;;;;;;;;;;4914544;28;20067;-83
2023/06/17 14:16:51;;;;;;;4.90;3.45;;;;;;;;;;4916515;28;20059;-83
2023/06/17 14:19:16;;;;;;;5.32;3.80;;;;;;;;;;4921700;29;20127;-83
2023/06/17 14:21:54;;;;;;;5.80;4.05;;;;;;;;;;4919522;28;20035;-83
2023/06/17 14:24:19;;;;;;;8.00;4.05;;;;;;;;;;4906652;28;20035;-85
2023/06/17 14:26:44;;;;;;;6.15;4.40;;;;;;;;;;4916128;29;20043;-84
2023/06/17 14:29:10;;;;;;;6.57;4.72;;;;;;;;;;4916197;28;20127;-84
2023/06/17 14:31:36;;;;;;;5.68;4.13;;;;;;;;;;4918188;28;20114;-84
2023/06/17 14:34:01;;;;;;;6.15;3.80;;;;;;;;;;4910181;28;20240;-85
2023/06/17 14:36:28;;;;;;;7.45;4.32;;;;;;;;;;4918259;29;20111;-84